sensor_id;sensor_type;location;lat;lon;timestamp;P1;durP1;ratioP1;P2;durP2;ratioP2
5217;SDS011;26539;51.064;6.346;2022-11-30T00:01:28;96.70;;;35.50;;
5217;SDS011;26539;51.064;6.346;2022-11-30T00:03:54;96.77;;;35.43;;
5217;SDS011;26539;51.064;6.346;2022-11-30T00:06:20;96.13;;;33.37;;
5217;SDS011;26539;51.064;6.346;2022-11-30T00:08:53;86.07;;;32.88;;
5217;SDS011;26539;51.064;6.346;2022-11-30T00:11:20;91.43;;;32.50;;
5217;SDS011;26539;51.064;6.346;2022-11-30T00:13:47;81.97;;;33.95;;
5217;SDS011;26539;51.064;6.346;2022-11-30T00:16:13;82.30;;;30.53;;
5217;SDS011;26539;51.064;6.346;2022-11-30T00:18:38;77.97;;;30.73;;
5217;SDS011;26539;51.064;6.346;2022-11-30T00:21:05;88.00;;;31.73;;
5217;SDS011;26539;51.064;6.346;2022-11-30T00:23:35;69.97;;;27.42;;
5217;SDS011;26539;51.064;6.346;2022-11-30T00:26:02;79.70;;;30.33;;
5217;SDS011;26539;51.064;6.346;2022-11-30T00:28:29;92.32;;;32.10;;
5217;SDS011;26539;51.064;6.346;2022-11-30T00:30:57;81.18;;;30.23;;
5217;SDS011;26539;51.064;6.346;2022-11-30T00:33:23;90.65;;;33.45;;
5217;SDS011;26539;51.064;6.346;2022-11-30T00:35:58;90.87;;;33.30;;
5217;SDS011;26539;51.064;6.346;2022-11-30T00:38:25;89.20;;;29.75;;
5217;SDS011;26539;51.064;6.346;2022-11-30T00:40:51;87.60;;;33.30;;
5217;SDS011;26539;51.064;6.346;2022-11-30T00:43:16;104.33;;;34.00;;
5217;SDS011;26539;51.064;6.346;2022-11-30T00:45:42;113.80;;;32.90;;
5217;SDS011;26539;51.064;6.346;2022-11-30T00:48:08;98.63;;;34.93;;
5217;SDS011;26539;51.064;6.346;2022-11-30T00:50:33;91.43;;;33.17;;
5217;SDS011;26539;51.064;6.346;2022-11-30T00:52:59;86.27;;;32.23;;
5217;SDS011;26539;51.064;6.346;2022-11-30T00:55:24;92.43;;;33.70;;
5217;SDS011;26539;51.064;6.346;2022-11-30T00:57:51;94.67;;;34.00;;
5217;SDS011;26539;51.064;6.346;2022-11-30T01:00:17;98.57;;;34.80;;
5217;SDS011;26539;51.064;6.346;2022-11-30T01:02:43;102.63;;;36.53;;
5217;SDS011;26539;51.064;6.346;2022-11-30T01:05:09;108.27;;;33.97;;
5217;SDS011;26539;51.064;6.346;2022-11-30T01:07:35;108.13;;;34.77;;
5217;SDS011;26539;51.064;6.346;2022-11-30T01:10:00;122.57;;;37.97;;
5217;SDS011;26539;51.064;6.346;2022-11-30T01:12:26;121.27;;;37.10;;
5217;SDS011;26539;51.064;6.346;2022-11-30T01:14:52;141.63;;;39.97;;
5217;SDS011;26539;51.064;6.346;2022-11-30T01:17:17;139.80;;;40.13;;
5217;SDS011;26539;51.064;6.346;2022-11-30T01:19:43;138.17;;;40.97;;
5217;SDS011;26539;51.064;6.346;2022-11-30T01:22:08;130.53;;;41.10;;
5217;SDS011;26539;51.064;6.346;2022-11-30T01:24:34;115.87;;;38.37;;
5217;SDS011;26539;51.064;6.346;2022-11-30T01:26:59;108.37;;;36.67;;
5217;SDS011;26539;51.064;6.346;2022-11-30T01:29:25;95.13;;;34.97;;
5217;SDS011;26539;51.064;6.346;2022-11-30T01:31:53;96.90;;;36.75;;
5217;SDS011;26539;51.064;6.346;2022-11-30T01:34:19;102.50;;;35.60;;
5217;SDS011;26539;51.064;6.346;2022-11-30T01:36:45;82.72;;;32.92;;
5217;SDS011;26539;51.064;6.346;2022-11-30T01:39:12;80.50;;;33.17;;
5217;SDS011;26539;51.064;6.346;2022-11-30T01:41:38;89.53;;;31.97;;
5217;SDS011;26539;51.064;6.346;2022-11-30T01:51:49;110.03;;;40.60;;
5217;SDS011;26539;51.064;6.346;2022-11-30T01:54:18;96.87;;;37.33;;
5217;SDS011;26539;51.064;6.346;2022-11-30T01:56:52;122.53;;;36.77;;
5217;SDS011;26539;51.064;6.346;2022-11-30T01:59:21;126.57;;;39.40;;
5217;SDS011;26539;51.064;6.346;2022-11-30T02:01:48;123.22;;;41.25;;
5217;SDS011;26539;51.064;6.346;2022-11-30T02:04:19;116.30;;;40.10;;
5217;SDS011;26539;51.064;6.346;2022-11-30T02:06:48;114.32;;;39.88;;
5217;SDS011;26539;51.064;6.346;2022-11-30T02:09:14;109.97;;;39.30;;
5217;SDS011;26539;51.064;6.346;2022-11-30T02:11:42;110.80;;;40.57;;
5217;SDS011;26539;51.064;6.346;2022-11-30T02:14:10;109.70;;;39.60;;
5217;SDS011;26539;51.064;6.346;2022-11-30T02:16:40;115.18;;;36.63;;
5217;SDS011;26539;51.064;6.346;2022-11-30T02:22:21;119.05;;;39.65;;
5217;SDS011;26539;51.064;6.346;2022-11-30T02:25:09;103.72;;;40.47;;
5217;SDS011;26539;51.064;6.346;2022-11-30T02:30:32;96.20;;;36.73;;
5217;SDS011;26539;51.064;6.346;2022-11-30T02:33:08;93.47;;;36.45;;
5217;SDS011;26539;51.064;6.346;2022-11-30T02:35:39;92.93;;;33.97;;
5217;SDS011;26539;51.064;6.346;2022-11-30T02:38:08;101.63;;;37.72;;
5217;SDS011;26539;51.064;6.346;2022-11-30T02:40:34;101.13;;;36.10;;
5217;SDS011;26539;51.064;6.346;2022-11-30T02:43:00;88.63;;;35.00;;
5217;SDS011;26539;51.064;6.346;2022-11-30T02:45:30;97.70;;;37.30;;
5217;SDS011;26539;51.064;6.346;2022-11-30T02:48:12;117.80;;;35.00;;
5217;SDS011;26539;51.064;6.346;2022-11-30T02:50:47;99.40;;;38.30;;
5217;SDS011;26539;51.064;6.346;2022-11-30T02:53:16;99.10;;;36.08;;
5217;SDS011;26539;51.064;6.346;2022-11-30T02:55:43;96.88;;;34.42;;
5217;SDS011;26539;51.064;6.346;2022-11-30T02:58:08;106.47;;;35.30;;
5217;SDS011;26539;51.064;6.346;2022-11-30T03:00:34;83.60;;;34.40;;
5217;SDS011;26539;51.064;6.346;2022-11-30T03:03:00;96.43;;;32.90;;
5217;SDS011;26539;51.064;6.346;2022-11-30T03:05:25;87.90;;;33.53;;
5217;SDS011;26539;51.064;6.346;2022-11-30T03:07:51;88.13;;;34.73;;
5217;SDS011;26539;51.064;6.346;2022-11-30T03:10:16;88.93;;;35.23;;
5217;SDS011;26539;51.064;6.346;2022-11-30T03:12:42;98.30;;;36.73;;
5217;SDS011;26539;51.064;6.346;2022-11-30T03:15:08;94.23;;;35.27;;
5217;SDS011;26539;51.064;6.346;2022-11-30T03:17:33;88.17;;;34.93;;
5217;SDS011;26539;51.064;6.346;2022-11-30T03:19:59;80.13;;;34.17;;
5217;SDS011;26539;51.064;6.346;2022-11-30T03:22:24;80.83;;;33.77;;
5217;SDS011;26539;51.064;6.346;2022-11-30T03:24:50;90.00;;;33.40;;
5217;SDS011;26539;51.064;6.346;2022-11-30T03:27:16;93.00;;;36.10;;
5217;SDS011;26539;51.064;6.346;2022-11-30T03:29:41;89.10;;;34.07;;
5217;SDS011;26539;51.064;6.346;2022-11-30T03:32:07;80.30;;;34.37;;
5217;SDS011;26539;51.064;6.346;2022-11-30T03:34:32;84.07;;;32.27;;
5217;SDS011;26539;51.064;6.346;2022-11-30T03:36:58;81.80;;;32.00;;
5217;SDS011;26539;51.064;6.346;2022-11-30T03:39:23;79.73;;;32.60;;
5217;SDS011;26539;51.064;6.346;2022-11-30T03:41:49;81.30;;;32.00;;
5217;SDS011;26539;51.064;6.346;2022-11-30T03:44:15;83.47;;;32.27;;
5217;SDS011;26539;51.064;6.346;2022-11-30T03:46:41;88.57;;;32.80;;
5217;SDS011;26539;51.064;6.346;2022-11-30T03:49:07;76.00;;;32.57;;
5217;SDS011;26539;51.064;6.346;2022-11-30T03:51:33;92.90;;;33.33;;
5217;SDS011;26539;51.064;6.346;2022-11-30T03:53:59;83.90;;;31.45;;
5217;SDS011;26539;51.064;6.346;2022-11-30T03:56:24;80.70;;;30.93;;
5217;SDS011;26539;51.064;6.346;2022-11-30T03:58:50;70.10;;;29.90;;
5217;SDS011;26539;51.064;6.346;2022-11-30T04:01:16;75.33;;;30.63;;
5217;SDS011;26539;51.064;6.346;2022-11-30T04:03:47;65.45;;;30.02;;
5217;SDS011;26539;51.064;6.346;2022-11-30T04:06:14;79.22;;;31.42;;
5217;SDS011;26539;51.064;6.346;2022-11-30T04:08:41;69.10;;;30.47;;
5217;SDS011;26539;51.064;6.346;2022-11-30T04:11:07;65.43;;;29.53;;
5217;SDS011;26539;51.064;6.346;2022-11-30T04:13:33;72.17;;;29.23;;
5217;SDS011;26539;51.064;6.346;2022-11-30T04:16:00;66.07;;;28.45;;
5217;SDS011;26539;51.064;6.346;2022-11-30T04:18:27;65.18;;;30.10;;
5217;SDS011;26539;51.064;6.346;2022-11-30T04:20:54;60.73;;;30.17;;
5217;SDS011;26539;51.064;6.346;2022-11-30T04:23:21;66.30;;;29.05;;
5217;SDS011;26539;51.064;6.346;2022-11-30T04:25:47;65.73;;;28.97;;
5217;SDS011;26539;51.064;6.346;2022-11-30T04:28:14;63.43;;;27.53;;
5217;SDS011;26539;51.064;6.346;2022-11-30T04:30:40;68.43;;;33.07;;
5217;SDS011;26539;51.064;6.346;2022-11-30T04:33:06;78.43;;;32.77;;
5217;SDS011;26539;51.064;6.346;2022-11-30T04:35:32;74.23;;;33.10;;
5217;SDS011;26539;51.064;6.346;2022-11-30T04:37:58;57.70;;;28.70;;
5217;SDS011;26539;51.064;6.346;2022-11-30T04:40:24;49.20;;;28.50;;
5217;SDS011;26539;51.064;6.346;2022-11-30T04:42:50;50.50;;;27.60;;
5217;SDS011;26539;51.064;6.346;2022-11-30T04:45:15;52.40;;;28.40;;
5217;SDS011;26539;51.064;6.346;2022-11-30T04:47:41;41.67;;;24.73;;
5217;SDS011;26539;51.064;6.346;2022-11-30T04:50:07;45.20;;;26.00;;
5217;SDS011;26539;51.064;6.346;2022-11-30T04:52:33;51.37;;;26.93;;
5217;SDS011;26539;51.064;6.346;2022-11-30T04:54:58;49.03;;;28.73;;
5217;SDS011;26539;51.064;6.346;2022-11-30T04:57:24;39.83;;;23.70;;
5217;SDS011;26539;51.064;6.346;2022-11-30T04:59:50;44.17;;;27.27;;
5217;SDS011;26539;51.064;6.346;2022-11-30T05:02:15;44.73;;;26.83;;
5217;SDS011;26539;51.064;6.346;2022-11-30T05:04:41;42.43;;;25.50;;
5217;SDS011;26539;51.064;6.346;2022-11-30T05:07:07;47.17;;;26.97;;
5217;SDS011;26539;51.064;6.346;2022-11-30T05:09:32;45.17;;;24.60;;
5217;SDS011;26539;51.064;6.346;2022-11-30T05:11:58;44.00;;;24.87;;
5217;SDS011;26539;51.064;6.346;2022-11-30T05:14:23;44.73;;;25.40;;
5217;SDS011;26539;51.064;6.346;2022-11-30T05:16:50;40.93;;;22.87;;
5217;SDS011;26539;51.064;6.346;2022-11-30T05:19:15;40.80;;;24.33;;
5217;SDS011;26539;51.064;6.346;2022-11-30T05:21:41;43.57;;;24.47;;
5217;SDS011;26539;51.064;6.346;2022-11-30T05:24:07;45.00;;;26.50;;
5217;SDS011;26539;51.064;6.346;2022-11-30T05:26:33;43.03;;;25.37;;
5217;SDS011;26539;51.064;6.346;2022-11-30T05:28:59;42.00;;;23.98;;
5217;SDS011;26539;51.064;6.346;2022-11-30T05:31:25;44.97;;;24.63;;
5217;SDS011;26539;51.064;6.346;2022-11-30T05:33:51;43.80;;;24.00;;
5217;SDS011;26539;51.064;6.346;2022-11-30T05:36:17;40.33;;;23.17;;
5217;SDS011;26539;51.064;6.346;2022-11-30T05:38:43;45.15;;;25.25;;
5217;SDS011;26539;51.064;6.346;2022-11-30T05:41:09;37.53;;;23.17;;
5217;SDS011;26539;51.064;6.346;2022-11-30T05:43:35;44.17;;;24.87;;
5217;SDS011;26539;51.064;6.346;2022-11-30T05:46:01;45.10;;;24.63;;
5217;SDS011;26539;51.064;6.346;2022-11-30T05:48:27;46.17;;;24.40;;
5217;SDS011;26539;51.064;6.346;2022-11-30T05:50:53;43.47;;;26.60;;
5217;SDS011;26539;51.064;6.346;2022-11-30T05:53:19;45.37;;;26.20;;
5217;SDS011;26539;51.064;6.346;2022-11-30T05:55:45;49.57;;;25.10;;
5217;SDS011;26539;51.064;6.346;2022-11-30T05:58:11;43.13;;;24.67;;
5217;SDS011;26539;51.064;6.346;2022-11-30T06:00:36;46.23;;;24.60;;
5217;SDS011;26539;51.064;6.346;2022-11-30T06:03:02;40.50;;;23.70;;
5217;SDS011;26539;51.064;6.346;2022-11-30T06:05:27;46.57;;;25.07;;
5217;SDS011;26539;51.064;6.346;2022-11-30T06:07:53;43.90;;;25.20;;
5217;SDS011;26539;51.064;6.346;2022-11-30T06:10:19;46.10;;;25.33;;
5217;SDS011;26539;51.064;6.346;2022-11-30T06:12:45;45.20;;;26.00;;
5217;SDS011;26539;51.064;6.346;2022-11-30T06:15:12;43.55;;;25.90;;
5217;SDS011;26539;51.064;6.346;2022-11-30T06:17:38;40.33;;;25.37;;
5217;SDS011;26539;51.064;6.346;2022-11-30T06:20:04;41.67;;;25.03;;
5217;SDS011;26539;51.064;6.346;2022-11-30T06:22:30;40.55;;;24.17;;
5217;SDS011;26539;51.064;6.346;2022-11-30T06:24:55;42.13;;;24.60;;
5217;SDS011;26539;51.064;6.346;2022-11-30T06:27:21;49.77;;;27.50;;
5217;SDS011;26539;51.064;6.346;2022-11-30T06:29:46;45.23;;;25.40;;
5217;SDS011;26539;51.064;6.346;2022-11-30T06:32:12;44.53;;;26.53;;
5217;SDS011;26539;51.064;6.346;2022-11-30T06:34:37;38.60;;;24.17;;
5217;SDS011;26539;51.064;6.346;2022-11-30T06:37:03;46.33;;;25.80;;
5217;SDS011;26539;51.064;6.346;2022-11-30T06:39:28;42.83;;;27.53;;
5217;SDS011;26539;51.064;6.346;2022-11-30T06:41:54;49.60;;;25.73;;
5217;SDS011;26539;51.064;6.346;2022-11-30T06:44:19;48.13;;;28.50;;
5217;SDS011;26539;51.064;6.346;2022-11-30T06:46:45;47.70;;;27.87;;
5217;SDS011;26539;51.064;6.346;2022-11-30T06:49:10;46.30;;;28.37;;
5217;SDS011;26539;51.064;6.346;2022-11-30T06:51:36;44.53;;;25.97;;
5217;SDS011;26539;51.064;6.346;2022-11-30T06:54:03;44.77;;;25.90;;
5217;SDS011;26539;51.064;6.346;2022-11-30T06:56:30;43.20;;;25.13;;
5217;SDS011;26539;51.064;6.346;2022-11-30T06:58:55;47.70;;;26.97;;
5217;SDS011;26539;51.064;6.346;2022-11-30T07:01:21;43.13;;;24.00;;
5217;SDS011;26539;51.064;6.346;2022-11-30T07:03:47;39.37;;;24.70;;
5217;SDS011;26539;51.064;6.346;2022-11-30T07:06:12;45.57;;;25.70;;
5217;SDS011;26539;51.064;6.346;2022-11-30T07:08:38;46.23;;;25.40;;
5217;SDS011;26539;51.064;6.346;2022-11-30T07:11:05;43.67;;;23.23;;
5217;SDS011;26539;51.064;6.346;2022-11-30T07:13:32;39.30;;;22.83;;
5217;SDS011;26539;51.064;6.346;2022-11-30T07:15:57;40.60;;;22.93;;
5217;SDS011;26539;51.064;6.346;2022-11-30T07:18:23;39.40;;;23.40;;
5217;SDS011;26539;51.064;6.346;2022-11-30T07:20:48;38.40;;;25.00;;
5217;SDS011;26539;51.064;6.346;2022-11-30T07:23:14;43.80;;;25.83;;
5217;SDS011;26539;51.064;6.346;2022-11-30T07:25:58;48.40;;;26.65;;
5217;SDS011;26539;51.064;6.346;2022-11-30T07:28:33;46.10;;;26.70;;
5217;SDS011;26539;51.064;6.346;2022-11-30T07:31:00;49.35;;;26.42;;
5217;SDS011;26539;51.064;6.346;2022-11-30T07:33:46;42.65;;;25.77;;
5217;SDS011;26539;51.064;6.346;2022-11-30T07:36:13;42.40;;;25.38;;
5217;SDS011;26539;51.064;6.346;2022-11-30T07:38:39;42.30;;;26.40;;
5217;SDS011;26539;51.064;6.346;2022-11-30T07:41:05;38.93;;;23.90;;
5217;SDS011;26539;51.064;6.346;2022-11-30T07:43:31;40.25;;;24.83;;
5217;SDS011;26539;51.064;6.346;2022-11-30T07:45:57;39.00;;;24.47;;
5217;SDS011;26539;51.064;6.346;2022-11-30T07:48:22;35.37;;;22.50;;
5217;SDS011;26539;51.064;6.346;2022-11-30T07:50:48;38.03;;;22.60;;
5217;SDS011;26539;51.064;6.346;2022-11-30T07:53:14;38.50;;;24.97;;
5217;SDS011;26539;51.064;6.346;2022-11-30T07:55:40;36.50;;;23.23;;
5217;SDS011;26539;51.064;6.346;2022-11-30T07:58:06;34.92;;;22.88;;
5217;SDS011;26539;51.064;6.346;2022-11-30T08:00:33;41.97;;;24.67;;
5217;SDS011;26539;51.064;6.346;2022-11-30T08:03:00;33.97;;;22.48;;
5217;SDS011;26539;51.064;6.346;2022-11-30T08:05:25;40.80;;;24.53;;
5217;SDS011;26539;51.064;6.346;2022-11-30T08:07:51;37.90;;;23.13;;
5217;SDS011;26539;51.064;6.346;2022-11-30T08:10:21;37.95;;;23.00;;
5217;SDS011;26539;51.064;6.346;2022-11-30T08:12:47;39.00;;;24.93;;
5217;SDS011;26539;51.064;6.346;2022-11-30T08:15:13;43.67;;;24.97;;
5217;SDS011;26539;51.064;6.346;2022-11-30T08:17:39;43.10;;;25.80;;
5217;SDS011;26539;51.064;6.346;2022-11-30T08:20:06;41.27;;;24.97;;
5217;SDS011;26539;51.064;6.346;2022-11-30T08:22:33;42.03;;;26.37;;
5217;SDS011;26539;51.064;6.346;2022-11-30T08:24:59;37.03;;;22.60;;
5217;SDS011;26539;51.064;6.346;2022-11-30T08:27:24;40.57;;;26.17;;
5217;SDS011;26539;51.064;6.346;2022-11-30T08:29:54;39.63;;;24.63;;
5217;SDS011;26539;51.064;6.346;2022-11-30T08:32:19;39.80;;;25.27;;
5217;SDS011;26539;51.064;6.346;2022-11-30T08:34:45;37.87;;;24.07;;
5217;SDS011;26539;51.064;6.346;2022-11-30T08:37:13;38.63;;;24.07;;
5217;SDS011;26539;51.064;6.346;2022-11-30T08:39:39;39.10;;;24.23;;
5217;SDS011;26539;51.064;6.346;2022-11-30T08:42:04;38.33;;;24.03;;
5217;SDS011;26539;51.064;6.346;2022-11-30T08:44:30;38.40;;;23.97;;
5217;SDS011;26539;51.064;6.346;2022-11-30T08:46:55;46.47;;;25.77;;
5217;SDS011;26539;51.064;6.346;2022-11-30T08:49:38;38.97;;;24.43;;
5217;SDS011;26539;51.064;6.346;2022-11-30T08:52:04;45.50;;;27.10;;
5217;SDS011;26539;51.064;6.346;2022-11-30T08:54:29;41.87;;;26.53;;
5217;SDS011;26539;51.064;6.346;2022-11-30T08:56:55;41.70;;;25.03;;
5217;SDS011;26539;51.064;6.346;2022-11-30T08:59:20;41.57;;;26.40;;
5217;SDS011;26539;51.064;6.346;2022-11-30T09:01:46;40.93;;;25.57;;
5217;SDS011;26539;51.064;6.346;2022-11-30T09:04:12;41.83;;;25.20;;
5217;SDS011;26539;51.064;6.346;2022-11-30T09:06:37;42.93;;;25.93;;
5217;SDS011;26539;51.064;6.346;2022-11-30T09:09:03;45.00;;;25.73;;
5217;SDS011;26539;51.064;6.346;2022-11-30T09:11:29;42.10;;;25.00;;
5217;SDS011;26539;51.064;6.346;2022-11-30T09:13:57;49.83;;;28.57;;
5217;SDS011;26539;51.064;6.346;2022-11-30T09:16:24;43.17;;;27.13;;
5217;SDS011;26539;51.064;6.346;2022-11-30T09:18:50;43.33;;;28.43;;
5217;SDS011;26539;51.064;6.346;2022-11-30T09:21:18;40.70;;;24.87;;
5217;SDS011;26539;51.064;6.346;2022-11-30T09:23:46;36.70;;;24.73;;
5217;SDS011;26539;51.064;6.346;2022-11-30T09:26:13;38.57;;;24.03;;
5217;SDS011;26539;51.064;6.346;2022-11-30T09:28:41;37.07;;;24.00;;
5217;SDS011;26539;51.064;6.346;2022-11-30T09:31:11;34.80;;;23.40;;
5217;SDS011;26539;51.064;6.346;2022-11-30T09:33:39;45.93;;;25.77;;
5217;SDS011;26539;51.064;6.346;2022-11-30T09:36:06;42.93;;;24.70;;
5217;SDS011;26539;51.064;6.346;2022-11-30T09:38:33;36.23;;;22.63;;
5217;SDS011;26539;51.064;6.346;2022-11-30T09:41:00;35.53;;;22.80;;
5217;SDS011;26539;51.064;6.346;2022-11-30T09:43:50;35.77;;;23.27;;
5217;SDS011;26539;51.064;6.346;2022-11-30T09:49:29;37.53;;;22.97;;
5217;SDS011;26539;51.064;6.346;2022-11-30T09:51:59;36.83;;;24.33;;
5217;SDS011;26539;51.064;6.346;2022-11-30T09:54:41;36.20;;;23.03;;
5217;SDS011;26539;51.064;6.346;2022-11-30T09:59:45;41.20;;;25.10;;
5217;SDS011;26539;51.064;6.346;2022-11-30T10:02:16;41.00;;;26.13;;
5217;SDS011;26539;51.064;6.346;2022-11-30T10:04:42;38.53;;;26.70;;
5217;SDS011;26539;51.064;6.346;2022-11-30T10:07:34;43.30;;;26.20;;
5217;SDS011;26539;51.064;6.346;2022-11-30T10:24:50;39.43;;;22.10;;
5217;SDS011;26539;51.064;6.346;2022-11-30T10:27:57;35.57;;;22.90;;
5217;SDS011;26539;51.064;6.346;2022-11-30T10:30:32;40.38;;;24.65;;
5217;SDS011;26539;51.064;6.346;2022-11-30T10:33:08;42.15;;;26.13;;
5217;SDS011;26539;51.064;6.346;2022-11-30T10:35:40;41.00;;;25.10;;
5217;SDS011;26539;51.064;6.346;2022-11-30T10:38:14;40.23;;;23.53;;
5217;SDS011;26539;51.064;6.346;2022-11-30T10:40:50;42.00;;;28.20;;
5217;SDS011;26539;51.064;6.346;2022-11-30T10:46:20;43.80;;;26.87;;
5217;SDS011;26539;51.064;6.346;2022-11-30T10:48:58;44.53;;;27.43;;
5217;SDS011;26539;51.064;6.346;2022-11-30T10:51:30;44.00;;;26.63;;
5217;SDS011;26539;51.064;6.346;2022-11-30T10:53:58;42.13;;;25.58;;
5217;SDS011;26539;51.064;6.346;2022-11-30T10:56:24;38.90;;;24.23;;
5217;SDS011;26539;51.064;6.346;2022-11-30T10:59:10;36.63;;;23.80;;
5217;SDS011;26539;51.064;6.346;2022-11-30T11:01:46;39.47;;;24.73;;
5217;SDS011;26539;51.064;6.346;2022-11-30T11:04:16;38.83;;;24.50;;
5217;SDS011;26539;51.064;6.346;2022-11-30T11:09:33;43.00;;;27.10;;
5217;SDS011;26539;51.064;6.346;2022-11-30T11:12:44;46.87;;;28.90;;
5217;SDS011;26539;51.064;6.346;2022-11-30T11:15:36;44.50;;;29.43;;
5217;SDS011;26539;51.064;6.346;2022-11-30T11:17:49;43.03;;;25.50;;
5217;SDS011;26539;51.064;6.346;2022-11-30T11:20:32;41.90;;;24.33;;
5217;SDS011;26539;51.064;6.346;2022-11-30T11:23:00;40.13;;;24.47;;
5217;SDS011;26539;51.064;6.346;2022-11-30T11:25:30;38.73;;;24.70;;
5217;SDS011;26539;51.064;6.346;2022-11-30T11:28:13;43.00;;;25.27;;
5217;SDS011;26539;51.064;6.346;2022-11-30T11:30:42;41.00;;;24.60;;
5217;SDS011;26539;51.064;6.346;2022-11-30T11:35:44;38.80;;;25.57;;
5217;SDS011;26539;51.064;6.346;2022-11-30T11:38:18;40.70;;;24.93;;
5217;SDS011;26539;51.064;6.346;2022-11-30T11:41:08;39.77;;;24.77;;
5217;SDS011;26539;51.064;6.346;2022-11-30T11:46:25;40.10;;;24.07;;
5217;SDS011;26539;51.064;6.346;2022-11-30T11:48:58;39.10;;;25.07;;
5217;SDS011;26539;51.064;6.346;2022-11-30T11:51:42;38.03;;;24.73;;
5217;SDS011;26539;51.064;6.346;2022-11-30T11:54:21;44.40;;;25.53;;
5217;SDS011;26539;51.064;6.346;2022-11-30T11:56:52;38.00;;;24.40;;
5217;SDS011;26539;51.064;6.346;2022-11-30T12:04:50;43.73;;;25.50;;
5217;SDS011;26539;51.064;6.346;2022-11-30T12:07:27;40.10;;;22.97;;
5217;SDS011;26539;51.064;6.346;2022-11-30T12:12:39;42.73;;;26.70;;
5217;SDS011;26539;51.064;6.346;2022-11-30T12:15:08;45.03;;;25.97;;
5217;SDS011;26539;51.064;6.346;2022-11-30T12:23:19;43.60;;;25.70;;
5217;SDS011;26539;51.064;6.346;2022-11-30T12:34:28;39.50;;;24.70;;
5217;SDS011;26539;51.064;6.346;2022-11-30T12:37:21;40.90;;;25.13;;
5217;SDS011;26539;51.064;6.346;2022-11-30T12:45:46;43.37;;;23.73;;
5217;SDS011;26539;51.064;6.346;2022-11-30T12:57:23;37.30;;;23.70;;
5217;SDS011;26539;51.064;6.346;2022-11-30T13:00:02;46.17;;;24.17;;
5217;SDS011;26539;51.064;6.346;2022-11-30T13:05:23;36.83;;;24.43;;
5217;SDS011;26539;51.064;6.346;2022-11-30T13:08:14;37.97;;;23.10;;
5217;SDS011;26539;51.064;6.346;2022-11-30T13:11:20;40.33;;;23.73;;
5217;SDS011;26539;51.064;6.346;2022-11-30T13:13:56;37.83;;;22.07;;
5217;SDS011;26539;51.064;6.346;2022-11-30T13:16:24;37.17;;;22.90;;
5217;SDS011;26539;51.064;6.346;2022-11-30T13:18:51;36.33;;;23.60;;
5217;SDS011;26539;51.064;6.346;2022-11-30T13:21:28;35.87;;;22.20;;
5217;SDS011;26539;51.064;6.346;2022-11-30T13:24:10;40.17;;;24.50;;
5217;SDS011;26539;51.064;6.346;2022-11-30T13:32:18;34.23;;;21.80;;
5217;SDS011;26539;51.064;6.346;2022-11-30T13:35:11;34.27;;;22.10;;
5217;SDS011;26539;51.064;6.346;2022-11-30T13:40:53;43.30;;;23.93;;
5217;SDS011;26539;51.064;6.346;2022-11-30T13:46:59;37.33;;;23.03;;
5217;SDS011;26539;51.064;6.346;2022-11-30T13:49:33;31.80;;;20.73;;
5217;SDS011;26539;51.064;6.346;2022-11-30T13:52:03;34.77;;;20.77;;
5217;SDS011;26539;51.064;6.346;2022-11-30T14:02:54;37.03;;;21.37;;
5217;SDS011;26539;51.064;6.346;2022-11-30T14:05:23;30.13;;;20.23;;
5217;SDS011;26539;51.064;6.346;2022-11-30T14:13:25;35.63;;;20.30;;
5217;SDS011;26539;51.064;6.346;2022-11-30T14:20:45;33.90;;;20.27;;
5217;SDS011;26539;51.064;6.346;2022-11-30T14:23:14;32.20;;;20.50;;
5217;SDS011;26539;51.064;6.346;2022-11-30T14:26:03;34.03;;;21.60;;
5217;SDS011;26539;51.064;6.346;2022-11-30T14:28:36;30.27;;;20.73;;
5217;SDS011;26539;51.064;6.346;2022-11-30T14:31:26;30.90;;;20.33;;
5217;SDS011;26539;51.064;6.346;2022-11-30T14:36:44;31.70;;;19.13;;
5217;SDS011;26539;51.064;6.346;2022-11-30T14:39:22;28.50;;;18.00;;
5217;SDS011;26539;51.064;6.346;2022-11-30T14:41:48;26.80;;;17.70;;
5217;SDS011;26539;51.064;6.346;2022-11-30T14:44:13;29.63;;;18.40;;
5217;SDS011;26539;51.064;6.346;2022-11-30T14:46:39;26.67;;;17.67;;
5217;SDS011;26539;51.064;6.346;2022-11-30T14:49:06;29.07;;;19.20;;
5217;SDS011;26539;51.064;6.346;2022-11-30T14:51:38;26.27;;;16.77;;
5217;SDS011;26539;51.064;6.346;2022-11-30T14:54:10;25.83;;;18.10;;
5217;SDS011;26539;51.064;6.346;2022-11-30T14:56:47;29.13;;;18.60;;
5217;SDS011;26539;51.064;6.346;2022-11-30T15:01:55;28.20;;;18.77;;
5217;SDS011;26539;51.064;6.346;2022-11-30T15:04:22;24.48;;;17.23;;
5217;SDS011;26539;51.064;6.346;2022-11-30T15:06:51;32.33;;;18.50;;
5217;SDS011;26539;51.064;6.346;2022-11-30T15:09:18;27.70;;;18.30;;
5217;SDS011;26539;51.064;6.346;2022-11-30T15:11:47;30.60;;;18.30;;
5217;SDS011;26539;51.064;6.346;2022-11-30T15:14:16;25.83;;;18.05;;
5217;SDS011;26539;51.064;6.346;2022-11-30T15:16:45;26.30;;;17.27;;
5217;SDS011;26539;51.064;6.346;2022-11-30T15:19:22;26.67;;;18.10;;
5217;SDS011;26539;51.064;6.346;2022-11-30T15:21:53;29.37;;;19.13;;
5217;SDS011;26539;51.064;6.346;2022-11-30T15:24:20;28.27;;;18.33;;
5217;SDS011;26539;51.064;6.346;2022-11-30T15:26:54;23.97;;;16.40;;
5217;SDS011;26539;51.064;6.346;2022-11-30T15:31:55;24.70;;;16.90;;
5217;SDS011;26539;51.064;6.346;2022-11-30T15:34:30;22.97;;;15.80;;
5217;SDS011;26539;51.064;6.346;2022-11-30T15:37:02;29.20;;;16.43;;
5217;SDS011;26539;51.064;6.346;2022-11-30T15:39:28;22.20;;;15.60;;
5217;SDS011;26539;51.064;6.346;2022-11-30T15:48:05;25.90;;;16.67;;
5217;SDS011;26539;51.064;6.346;2022-11-30T15:51:21;22.10;;;15.43;;
5217;SDS011;26539;51.064;6.346;2022-11-30T15:56:53;22.80;;;15.70;;
5217;SDS011;26539;51.064;6.346;2022-11-30T15:59:32;21.67;;;14.83;;
5217;SDS011;26539;51.064;6.346;2022-11-30T16:05:26;24.00;;;16.13;;
5217;SDS011;26539;51.064;6.346;2022-11-30T16:08:22;22.23;;;14.37;;
5217;SDS011;26539;51.064;6.346;2022-11-30T16:10:48;23.90;;;16.83;;
5217;SDS011;26539;51.064;6.346;2022-11-30T16:13:14;25.30;;;15.67;;
5217;SDS011;26539;51.064;6.346;2022-11-30T16:15:42;22.27;;;14.87;;
5217;SDS011;26539;51.064;6.346;2022-11-30T16:18:16;22.83;;;14.30;;
5217;SDS011;26539;51.064;6.346;2022-11-30T16:20:51;46.22;;;16.38;;
5217;SDS011;26539;51.064;6.346;2022-11-30T16:23:25;23.60;;;15.10;;
5217;SDS011;26539;51.064;6.346;2022-11-30T16:25:51;24.97;;;15.07;;
5217;SDS011;26539;51.064;6.346;2022-11-30T16:28:18;24.50;;;16.10;;
5217;SDS011;26539;51.064;6.346;2022-11-30T16:30:44;24.90;;;16.52;;
5217;SDS011;26539;51.064;6.346;2022-11-30T16:33:16;26.38;;;18.40;;
5217;SDS011;26539;51.064;6.346;2022-11-30T16:38:26;25.92;;;17.85;;
5217;SDS011;26539;51.064;6.346;2022-11-30T16:40:52;24.90;;;18.27;;
5217;SDS011;26539;51.064;6.346;2022-11-30T16:43:19;36.63;;;21.87;;
5217;SDS011;26539;51.064;6.346;2022-11-30T16:48:37;26.45;;;16.92;;
5217;SDS011;26539;51.064;6.346;2022-11-30T16:51:03;26.43;;;16.43;;
5217;SDS011;26539;51.064;6.346;2022-11-30T16:53:29;27.40;;;17.13;;
5217;SDS011;26539;51.064;6.346;2022-11-30T16:55:54;28.70;;;17.53;;
5217;SDS011;26539;51.064;6.346;2022-11-30T16:58:20;33.23;;;19.23;;
5217;SDS011;26539;51.064;6.346;2022-11-30T17:00:45;28.20;;;16.63;;
5217;SDS011;26539;51.064;6.346;2022-11-30T17:03:25;32.33;;;18.23;;
5217;SDS011;26539;51.064;6.346;2022-11-30T17:05:53;35.13;;;18.70;;
5217;SDS011;26539;51.064;6.346;2022-11-30T17:08:19;32.77;;;19.33;;